METAR Data
IDs: Format: Raw Decoded Include TAF

Data at: 0128 UTC 16 Jan 2019

METAR for:PANC (Anchorage Intl, AK, US)
Text:PANC 160053Z 07005KT 10SM FEW200 M06/M11 A2971 RMK AO2 SLP063 T10611106
Temperature: -6.1°C ( 21°F)
Dewpoint:-10.6°C ( 13°F) [RH = 70%]
Pressure (altimeter):29.71 inches Hg (1006.2 mb) [Sea level pressure: 1006.3 mb]
Winds:from the ENE (70 degrees) at 6 MPH (5 knots; 2.6 m/s)
Visibility:10 or more sm (16+ km)
Ceiling:at least 12,000 feet AGL
Clouds: few clouds at 20000 feet AGL
Text:PANC 152353Z 05005KT 10SM FEW200 M05/M09 A2972 RMK AO2 SLP067 4/011 T10501094 11050 21078 58019
Temperature: -5.0°C ( 23°F)
Dewpoint: -9.4°C ( 15°F) [RH = 71%]
Pressure (altimeter):29.72 inches Hg (1006.5 mb) [Sea level pressure: 1006.7 mb]
Winds:from the NE (50 degrees) at 6 MPH (5 knots; 2.6 m/s)
Visibility:10 or more sm (16+ km)
Ceiling:at least 12,000 feet AGL
Clouds: few clouds at 20000 feet AGL
Text:PANC 152253Z 07004KT 10SM FEW200 M06/M10 A2974 RMK AO2 SLP074 T10561100
Temperature: -5.6°C ( 22°F)
Dewpoint:-10.0°C ( 14°F) [RH = 71%]
Pressure (altimeter):29.74 inches Hg (1007.2 mb) [Sea level pressure: 1007.4 mb]
Winds:from the ENE (70 degrees) at 5 MPH (4 knots; 2.1 m/s)
Visibility:10 or more sm (16+ km)
Ceiling:at least 12,000 feet AGL
Clouds: few clouds at 20000 feet AGL
Text:PANC 152153Z 06006KT 10SM FEW200 M07/M10 A2976 RMK AO2 SLP082 T10671100
Temperature: -6.7°C ( 20°F)
Dewpoint:-10.0°C ( 14°F) [RH = 77%]
Pressure (altimeter):29.76 inches Hg (1007.9 mb) [Sea level pressure: 1008.2 mb]
Winds:from the ENE (60 degrees) at 7 MPH (6 knots; 3.1 m/s)
Visibility:10 or more sm (16+ km)
Ceiling:at least 12,000 feet AGL
Clouds: few clouds at 20000 feet AGL
Text:PANC 152053Z 04005KT 10SM FEW200 M06/M10 A2978 RMK AO2 SLP086 T10611100 58017
Temperature: -6.1°C ( 21°F)
Dewpoint:-10.0°C ( 14°F) [RH = 74%]
Pressure (altimeter):29.78 inches Hg (1008.5 mb) [Sea level pressure: 1008.6 mb]
Winds:from the NE (40 degrees) at 6 MPH (5 knots; 2.6 m/s)
Visibility:10 or more sm (16+ km)
Ceiling:at least 12,000 feet AGL
Clouds: few clouds at 20000 feet AGL
Text:PANC 151953Z 02005KT 10SM FEW200 M06/M10 A2980 RMK AO2 SLP093 T10611100
Temperature: -6.1°C ( 21°F)
Dewpoint:-10.0°C ( 14°F) [RH = 74%]
Pressure (altimeter):29.80 inches Hg (1009.2 mb) [Sea level pressure: 1009.3 mb]
Winds:from the NNE (20 degrees) at 6 MPH (5 knots; 2.6 m/s)
Visibility:10 or more sm (16+ km)
Ceiling:at least 12,000 feet AGL
Clouds: few clouds at 20000 feet AGL

TAF for:PANC (Anchorage Intl, AK, US) issued at 2333 UTC 15 Jan 2019
Text:PANC 152333Z 1600/1706 03006KT P6SM SCT100 BKN200
Forecast period:0000 to 1200 UTC 16 January 2019
Forecast type:FROM: standard forecast or significant change
Winds:from the NNE (30 degrees) at 7 MPH (6 knots; 3.1 m/s)
Visibility:6 or more sm (10+ km)
Ceiling:20000 feet AGL
Clouds: scattered clouds at 10000 feet AGL, broken clouds at 20000 feet AGL
Text:FM161200 03006KT P6SM VCSH SCT040 OVC070
Forecast period:1200 UTC 16 January 2019 to 0600 UTC 17 January 2019
Forecast type:FROM: standard forecast or significant change
Winds:from the NNE (30 degrees) at 7 MPH (6 knots; 3.1 m/s)
Visibility:6 or more sm (10+ km)
Ceiling:7000 feet AGL
Clouds: scattered clouds at 4000 feet AGL, overcast cloud deck at 7000 feet AGL
Weather:VCSH (showers in vicinity)